METAR Data
IDs: Format: Raw Decoded Include TAF

Data at: 0103 UTC 06 Dec 2019

KBMC 060050Z AUTO 00000KT 2SM SCT015 OVC033 01/00 A3025 RMK AO1 T00110000
KBMC 060030Z AUTO 00000KT 3SM BKN015 OVC038 01/00 A3025 RMK AO1 T00111001
KBMC 060010Z AUTO 00000KT 2 1/2SM OVC015 01/00 A3025 RMK AO1 T00120000
KBMC 052350Z AUTO 00000KT 2 1/2SM OVC013 01/00 A3025 RMK AO1 T00140000
KBMC 052330Z AUTO 00000KT 2 1/2SM OVC013 01/00 A3024 RMK AO1 VIS 1 1/2V5 T00140000
KBMC 052310Z AUTO 00000KT 3SM OVC013 01/00 A3023 RMK AO1 T00140000
KBMC 052250Z AUTO 21003KT 1 1/4SM BKN013 OVC035 01/00 A3023 RMK AO1 T00120000
KBMC 052230Z AUTO 13003KT 1 1/2SM OVC013 01/00 A3021 RMK AO1 T00130000
KBMC 052210Z AUTO 00000KT 3/4SM OVC011 01/00 A3021 RMK AO1 T00140000
KBMC 052150Z AUTO 00000KT 1 1/4SM OVC009 02/00 A3021 RMK AO1 T00150001
KBMC 052130Z AUTO 00000KT 1 1/4SM OVC009 02/00 A3021 RMK AO1 T00150001
KBMC 052110Z AUTO 00000KT 1 1/2SM OVC009 02/00 A3019 RMK AO1 T00150002
KBMC 052050Z AUTO 00000KT 2SM OVC009 02/00 A3019 RMK AO1 T00160003
KBMC 052030Z AUTO 22003KT 1 3/4SM OVC011 01/00 A3018 RMK AO1 T00140002
KBMC 052010Z AUTO 00000KT 1SM OVC011 01/00 A3017 RMK AO1 T00120001
KBMC 051950Z AUTO 00000KT 1SM OVC009 01/00 A3017 RMK AO1 T00120001
KBMC 051930Z AUTO 00000KT 1SM OVC011 01/00 A3017 RMK AO1 T00110000
KBMC 051910Z AUTO 00000KT 3/4SM OVC011 01/00 A3017 RMK AO1 T00110000
KBMC 051850Z AUTO 00000KT 1SM OVC011 01/00 A3017 RMK AO1 T00110000
KBMC 051830Z AUTO 25003KT 1 1/4SM OVC009 01/00 A3017 RMK AO1 T00110000
KBMC 051810Z AUTO 00000KT 3/4SM OVC009 01/00 A3016 RMK AO1 T00081001
KBMC 051750Z AUTO 00000KT 3/4SM BKN003 OVC009 01/00 A3016 RMK AO1 T00081001
KBMC 051730Z AUTO 00000KT 1SM OVC009 01/00 A3015 RMK AO1 T00100000
KBMC 051710Z AUTO 00000KT 1SM OVC011 01/00 A3013 RMK AO1 T00081001
KBMC 051650Z AUTO 00000KT 3/4SM OVC011 01/00 A3012 RMK AO1 T00071002
KBMC 051630Z AUTO 00000KT 1/2SM OVC011 01/00 A3011 RMK AO1 T00061003
KBMC 051610Z AUTO 00000KT 1/2SM OVC011 01/00 A3010 RMK AO1 T00051005
KBMC 051550Z AUTO 00000KT 1/2SM OVC011 00/00 A3009 RMK AO1 T00041005
KBMC 051530Z AUTO 00000KT 1/2SM OVC013 00/M01 A3008 RMK AO1 T00031006
KBMC 051510Z AUTO 00000KT 1/2SM OVC013 00/M01 A3007 RMK AO1 T00021007
KBMC 051450Z AUTO 00000KT 3/4SM OVC013 00/M01 A3006 RMK AO1 T00011007
KBMC 051430Z AUTO 00000KT 1SM SCT007 OVC013 00/M01 A3004 RMK AO1 T00011008
KBMC 051410Z AUTO 00000KT 1SM OVC005 00/M01 A3003 RMK AO1 T00011008
KBMC 051350Z AUTO 00000KT 1 1/4SM BKN005 OVC019 00/M01 A3002 RMK AO1 T00011008
KBMC 051330Z AUTO 21003KT 1 1/4SM SCT003 SCT010 OVC019 00/M01 A3000 RMK AO1 T00001010
KBMC 051310Z AUTO 15003KT 1SM BKN003 OVC010 00/M01 A2999 RMK AO1 T00001010
KBMC 051250Z AUTO 00000KT 1 1/4SM OVC006 00/M01 A2999 RMK AO1 T00001011
KBMC 051230Z AUTO 00000KT 1 1/4SM OVC006 00/M01 A2998 RMK AO1 T00001012
KBMC 051210Z AUTO 31003KT 1 3/4SM SCT006 OVC014 00/M01 A2997 RMK AO1 T00001012
KBMC 051150Z AUTO 31005KT 1 1/2SM OVC014 00/M01 A2996 RMK AO1 T00001010
KBMC 051130Z AUTO 32004KT 1 1/2SM BKN004 OVC016 00/M01 A2995 RMK AO1 T00001011
KBMC 051110Z AUTO 35004KT 1 1/4SM BKN006 OVC016 00/M01 A2995 RMK AO1 T00001012
KBMC 051050Z AUTO 00000KT 1 1/4SM BKN004 OVC016 00/M01 A2995 RMK AO1 T00001012
KBMC 051030Z AUTO 03003KT 1 1/4SM SCT002 OVC016 00/M01 A2995 RMK AO1 T10011014
KBMC 051010Z AUTO 34003KT 1 1/2SM OVC014 00/M02 A2995 RMK AO1 T10041016
KBMC 050950Z AUTO 35003KT 1 1/2SM OVC016 M01/M02 A2994 RMK AO1 T10061018
KBMC 050930Z AUTO 00000KT 1 1/4SM BKN020 OVC026 M01/M02 A2994 RMK AO1 T10071020
KBMC 050910Z AUTO 00000KT 1 1/4SM BKN019 OVC026 M01/M02 A2993 RMK AO1 T10091021
KBMC 050850Z AUTO 00000KT 1SM OVC019 M01/M02 A2993 RMK AO1 T10101022
KBMC 050830Z AUTO 00000KT 1SM OVC019 M01/M02 A2993 RMK AO1 T10101023
KBMC 050810Z AUTO 00000KT 1 1/4SM BKN017 OVC027 M01/M02 A2992 RMK AO1 T10101023
KBMC 050750Z AUTO 00000KT 1 1/4SM SCT004 BKN012 OVC029 M01/M02 A2992 RMK AO1 T10101023
KBMC 050730Z AUTO 00000KT 1 1/4SM OVC004 M01/M02 A2993 RMK AO1 T10101023
KBMC 050710Z AUTO 00000KT 2SM BKN004 OVC008 M01/M02 A2992 RMK AO1 T10101025
KBMC 050650Z AUTO 00000KT 2SM BKN004 BKN014 OVC041 M01/M03 A2992 RMK AO1 T10131028
KBMC 050630Z AUTO 00000KT 3SM BKN004 BKN014 OVC060 M02/M03 A2992 RMK AO1 T10161031
KBMC 050610Z AUTO 00000KT 3SM SCT004 BKN060 OVC070 M02/M03 A2993 RMK AO1 T10191033
KBMC 050550Z AUTO 17004KT 3SM SCT005 BKN080 OVC090 M02/M04 A2993 RMK AO1 T10221037
KBMC 050530Z AUTO 00000KT 3SM OVC090 M03/M04 A2992 RMK AO1 T10271042
KBMC 050510Z AUTO 00000KT 4SM OVC100 M03/M04 A2991 RMK AO1 T10281043
KBMC 050450Z AUTO 00000KT 3SM OVC110 M03/M05 A2990 RMK AO1 T10321048
KBMC 050430Z AUTO 00000KT 4SM SCT110 M03/M04 A2990 RMK AO1 T10291043
KBMC 050410Z AUTO 00000KT 4SM CLR M03/M04 A2990 RMK AO1 T10321045
KBMC 050350Z AUTO 00000KT 3SM SCT100 SCT120 M03/M05 A2990 RMK AO1 T10331048
KBMC 050330Z AUTO 00000KT 3SM SCT100 SCT120 M03/M05 A2991 RMK AO1 T10341049
KBMC 050310Z AUTO 00000KT 4SM CLR M03/M04 A2992 RMK AO1 T10281042
KBMC 050250Z AUTO 27003KT 4SM SCT120 M03/M04 A2992 RMK AO1 T10301044
KBMC 050230Z AUTO 00000KT 4SM CLR M04/M05 A2992 RMK AO1 T10361050
KBMC 050210Z AUTO 00000KT 3SM CLR M04/M05 A2994 RMK AO1 T10361051
KBMC 050150Z AUTO 15004KT 4SM CLR M03/M04 A2996 RMK AO1 T10301044
KBMC 050130Z AUTO 18005KT 3SM CLR M03/M04 A2995 RMK AO1 T10301043
KBMC 050110Z AUTO 00000KT 4SM CLR M03/M04 A2993 RMK AO1 T10301045
KBMC 050050Z AUTO 00000KT 5SM CLR M02/M04 A2995 RMK AO1 T10251038
KBMC 050030Z AUTO 27003KT 5SM SCT110 M02/M04 A2995 RMK AO1 T10241037
KBMC 050010Z AUTO 32003KT 5SM BKN110 M02/M04 A2996 RMK AO1 T10241036
KBMC 042350Z AUTO 00000KT 4SM OVC110 M02/M04 A2997 RMK AO1 T10241036
KBMC 042330Z AUTO 00000KT 4SM OVC110 M02/M03 A2998 RMK AO1 T10221035
KBMC 042310Z AUTO 00000KT 2 1/2SM OVC110 M02/M03 A2997 RMK AO1 T10201033
KBMC 042250Z AUTO 00000KT 2 1/2SM OVC110 M02/M03 A2997 RMK AO1 T10201032
KBMC 042230Z AUTO 00000KT 2 1/2SM OVC110 M02/M03 A2999 RMK AO1 T10211034
KBMC 042210Z AUTO 00000KT 2 1/2SM OVC110 M02/M03 A2999 RMK AO1 T10211035
KBMC 042150Z AUTO 00000KT 2 1/2SM OVC110 M02/M03 A2999 RMK AO1 T10211035
KBMC 042130Z AUTO 00000KT 3SM BKN110 M02/M03 A3001 RMK AO1 T10201034
KBMC 042110Z AUTO 19003KT 3SM OVC110 M02/M03 A3001 RMK AO1 T10211035
KBMC 042050Z AUTO 00000KT 3SM BKN110 M02/M04 A3001 RMK AO1 T10221036
KBMC 042030Z AUTO 34003KT 3SM SCT110 M02/M04 A3001 RMK AO1 T10251039
KBMC 042010Z AUTO 00000KT 2SM BKN120 M02/M04 A3002 RMK AO1 T10251039
KBMC 041950Z AUTO 00000KT 2SM BKN120 M03/M04 A3004 RMK AO1 T10261042
KBMC 041930Z AUTO 00000KT 2SM CLR M02/M04 A3006 RMK AO1 T10221036
KBMC 041910Z AUTO 00000KT 2 1/2SM SCT005 SCT120 M03/M04 A3008 RMK AO1 T10291044
KBMC 041850Z AUTO 00000KT 1/4SM OVC003 M03/M05 A3008 RMK AO1 T10351051
KBMC 041830Z AUTO 00000KT M1/4SM OVC001 M04/M05 A3008 RMK AO1 T10381053
KBMC 041810Z AUTO 00000KT 1/4SM OVC001 M04/M06 A3009 RMK AO1 T10411056
KBMC 041750Z AUTO 00000KT M1/4SM OVC001 M05/M06 A3009 RMK AO1 T10481064
KBMC 041730Z AUTO 00000KT M1/4SM OVC001 M05/M07 A3010 RMK AO1 T10521068
KBMC 041710Z AUTO 00000KT M1/4SM OVC001 M05/M07 A3010 RMK AO1 T10551072
KBMC 041650Z AUTO 00000KT M1/4SM OVC001 M06/M07 A3010 RMK AO1 T10581074
KBMC 041630Z AUTO 36003KT M1/4SM OVC001 M06/M08 A3011 RMK AO1 T10631080
KBMC 041610Z AUTO 00000KT M1/4SM OVC001 M07/M08 A3012 RMK AO1 T10671085
KBMC 041550Z AUTO 00000KT M1/4SM OVC001 M07/M09 A3012 RMK AO1 T10711089
KBMC 041530Z AUTO 00000KT M1/4SM OVC001 M07/M09 A3012 RMK AO1 T10751093
KBMC 041510Z AUTO 00000KT M1/4SM OVC001 M08/M10 A3013 RMK AO1 T10791098
KBMC 041450Z AUTO 00000KT M1/4SM OVC001 M08/M09 A3013 RMK AO1 T10761095
KBMC 041430Z AUTO 33003KT M1/4SM OVC001 M08/M10 A3012 RMK AO1 T10801098
KBMC 041410Z AUTO 33003KT 1/4SM OVC001 M08/M10 A3012 RMK AO1 T10801099
KBMC 041350Z AUTO 00000KT M1/4SM OVC001 M07/M09 A3012 RMK AO1 T10741092
KBMC 041330Z AUTO 00000KT M1/4SM OVC001 M06/M08 A3013 RMK AO1 T10651083
KBMC 041310Z AUTO 35004KT M1/4SM OVC001 M06/M08 A3013 RMK AO1 T10601077